TAF and METAR

Decoding for American and Canadian METARs and TAFs is not fully implemented.

Could not understand the following METAR

CYRB 011600Z 13015KT 20SM IC SCT250 M28/M32 A3124 RMK CI3 SLP594

TAF for Resolute Bay Airport

TAF CYRB 011138Z 0112/0212 14018KT 6SM IC SKC TEMPO 0112/0206 21/2SM IC BLSN FM020600 18015KT 6SM IC SKC RMK NXT FCST BY 011800Z
Report created 1. apr 13:38

between 1. apr 14:00 - 2. apr 14:00

wind 18 knots from SE (140°)